createdAt,value
2023-03-21T00:01:50.378Z,12.30
2023-03-21T00:04:54.927Z,12.22
2023-03-21T00:07:56.855Z,12.10
2023-03-21T00:11:00.479Z,12.04
2023-03-21T00:14:02.578Z,12.05
2023-03-21T00:17:04.954Z,12.00
2023-03-21T00:20:15.310Z,11.92
2023-03-21T00:23:17.361Z,11.85
2023-03-21T00:26:19.239Z,11.77
2023-03-21T00:29:21.292Z,11.71
2023-03-21T00:32:23.070Z,11.67
2023-03-21T00:38:46.910Z,11.69
2023-03-21T00:41:50.142Z,11.62
2023-03-21T00:44:51.958Z,11.37
2023-03-21T00:47:53.898Z,10.38
2023-03-21T00:50:57.260Z,9.75
2023-03-21T00:53:59.549Z,9.51
2023-03-21T00:57:02.880Z,9.30
2023-03-21T01:00:07.650Z,9.18
2023-03-21T01:03:23.773Z,9.35
2023-03-21T01:06:27.363Z,9.17
2023-03-21T01:09:29.281Z,9.07
2023-03-21T01:12:31.167Z,9.08
2023-03-21T01:15:33.115Z,8.98
2023-03-21T01:18:36.579Z,9.00
2023-03-21T01:21:38.330Z,8.87
2023-03-21T01:24:50.313Z,8.87
2023-03-21T01:27:57.243Z,8.96
2023-03-21T01:31:00.853Z,8.84
2023-03-21T01:34:02.749Z,8.50
2023-03-21T01:37:04.583Z,8.40
2023-03-21T01:40:07.059Z,8.27
2023-03-21T01:43:30.396Z,8.15
2023-03-21T01:46:51.521Z,8.18
2023-03-21T01:50:01.842Z,8.20
2023-03-21T01:53:04.540Z,8.32
2023-03-21T01:56:11.077Z,8.43
2023-03-21T01:59:21.559Z,8.47
2023-03-21T02:02:31.288Z,8.59
2023-03-21T02:05:40.312Z,8.60
2023-03-21T02:08:42.193Z,8.60
2023-03-21T02:11:46.716Z,8.70
2023-03-21T02:14:49.176Z,8.59
2023-03-21T02:18:06.553Z,8.69
2023-03-21T02:21:08.206Z,8.70
2023-03-21T02:24:33.190Z,8.49
2023-03-21T02:27:39.679Z,8.46
2023-03-21T02:30:51.984Z,8.52
2023-03-21T02:34:12.658Z,8.49
2023-03-21T02:37:28.843Z,8.63
2023-03-21T02:40:44.031Z,8.51
2023-03-21T02:44:21.344Z,8.72
2023-03-21T02:47:41.717Z,8.90
2023-03-21T02:50:46.751Z,9.36
2023-03-21T02:54:16.679Z,9.81
2023-03-21T02:57:18.845Z,9.90
2023-03-21T03:00:24.528Z,9.89
2023-03-21T03:03:34.095Z,9.96
2023-03-21T03:06:44.314Z,9.93
2023-03-21T03:10:10.904Z,10.27
2023-03-21T03:13:16.353Z,10.33
2023-03-21T03:16:40.275Z,10.34
2023-03-21T03:19:55.059Z,10.35
2023-03-21T03:23:10.111Z,10.38
2023-03-21T03:26:16.326Z,10.39
2023-03-21T03:29:19.214Z,10.39
2023-03-21T03:32:28.250Z,10.42
2023-03-21T03:35:30.481Z,10.45
2023-03-21T03:38:32.802Z,10.45
2023-03-21T03:42:04.363Z,10.47
2023-03-21T03:45:04.600Z,10.42
2023-03-21T03:48:12.367Z,10.45
2023-03-21T03:51:28.340Z,10.53
2023-03-21T03:54:33.892Z,10.56
2023-03-21T03:57:35.954Z,10.55
2023-03-21T04:00:38.285Z,10.48
2023-03-21T04:03:49.009Z,10.49
2023-03-21T04:06:53.455Z,10.49
2023-03-21T04:09:55.272Z,10.49
2023-03-21T04:12:57.133Z,10.50
2023-03-21T04:15:59.213Z,10.56
2023-03-21T04:19:02.154Z,10.50
2023-03-21T04:22:04.019Z,10.59
2023-03-21T04:25:06.506Z,10.53
2023-03-21T04:28:08.370Z,10.51
2023-03-21T04:31:22.681Z,10.39
2023-03-21T04:34:28.327Z,10.31
2023-03-21T04:37:33.481Z,10.30
2023-03-21T04:40:35.664Z,10.28
2023-03-21T04:43:37.605Z,10.26
2023-03-21T04:46:39.932Z,10.24
2023-03-21T04:49:45.806Z,10.19
2023-03-21T04:52:48.776Z,10.18
2023-03-21T04:55:54.855Z,10.18
2023-03-21T04:58:58.214Z,10.19
2023-03-21T05:02:01.232Z,10.19
2023-03-21T05:05:03.099Z,10.18
2023-03-21T05:08:06.001Z,10.24
2023-03-21T05:11:07.797Z,10.29
2023-03-21T05:14:12.699Z,10.36
2023-03-21T05:17:15.459Z,10.38
2023-03-21T05:20:17.786Z,10.43
2023-03-21T05:23:20.492Z,10.43
2023-03-21T05:26:23.162Z,10.44
2023-03-21T05:29:25.097Z,10.43
2023-03-21T05:32:26.987Z,10.40
2023-03-21T05:35:28.842Z,10.34
2023-03-21T05:38:31.153Z,10.32
2023-03-21T05:41:33.213Z,10.31
2023-03-21T05:44:35.029Z,10.40
2023-03-21T05:47:36.801Z,10.58
2023-03-21T05:50:39.282Z,10.88
2023-03-21T05:53:41.218Z,11.18
2023-03-21T05:56:42.926Z,11.27
2023-03-21T05:59:45.168Z,11.35
2023-03-21T06:02:47.291Z,11.39
2023-03-21T06:05:49.145Z,11.52
2023-03-21T06:08:50.910Z,11.67
2023-03-21T06:11:54.725Z,11.83
2023-03-21T06:14:56.735Z,11.93
2023-03-21T06:17:58.669Z,12.10
2023-03-21T06:21:00.982Z,12.37
2023-03-21T06:24:03.650Z,12.62
2023-03-21T06:27:05.829Z,12.92
2023-03-21T06:30:08.474Z,13.09
2023-03-21T06:33:10.911Z,13.46
2023-03-21T06:36:12.668Z,13.75
2023-03-21T06:39:16.109Z,14.01
2023-03-21T06:42:18.025Z,14.22
2023-03-21T06:45:20.070Z,14.42
2023-03-21T06:48:21.856Z,14.37
2023-03-21T06:51:23.799Z,14.79
2023-03-21T06:54:25.880Z,14.65
2023-03-21T06:57:27.831Z,14.27
2023-03-21T07:00:30.246Z,14.14
2023-03-21T07:03:32.898Z,13.87
2023-03-21T07:06:34.915Z,13.73
2023-03-21T07:09:36.713Z,13.37
2023-03-21T07:12:38.592Z,13.35
2023-03-21T07:15:41.364Z,13.50
2023-03-21T07:18:43.342Z,13.68
2023-03-21T07:21:45.803Z,13.51
2023-03-21T07:25:02.439Z,13.46
2023-03-21T07:28:09.174Z,14.03
2023-03-21T07:31:17.776Z,14.40
2023-03-21T07:34:19.915Z,14.83
2023-03-21T07:37:21.839Z,14.97
2023-03-21T07:40:23.683Z,15.61
2023-03-21T07:43:25.673Z,16.15
2023-03-21T07:46:27.549Z,16.27
2023-03-21T07:49:31.176Z,16.57
2023-03-21T07:52:33.317Z,16.63
2023-03-21T07:55:35.927Z,16.48
2023-03-21T07:58:38.028Z,16.47
2023-03-21T08:01:40.080Z,16.61
2023-03-21T08:04:41.907Z,16.57
2023-03-21T08:07:43.666Z,16.60
2023-03-21T08:10:45.923Z,16.40
2023-03-21T08:13:47.844Z,16.56
2023-03-21T08:16:49.723Z,16.59
2023-03-21T08:19:51.578Z,16.66
2023-03-21T08:22:53.367Z,16.89
2023-03-21T08:26:06.758Z,16.96
2023-03-21T08:29:10.991Z,16.83
2023-03-21T08:32:12.838Z,17.23
2023-03-21T08:35:17.669Z,17.33
2023-03-21T08:38:19.415Z,17.37
2023-03-21T08:41:22.158Z,17.78
2023-03-21T08:44:26.013Z,17.80
2023-03-21T08:47:27.890Z,18.09
2023-03-21T08:50:31.757Z,18.00
2023-03-21T08:53:34.207Z,18.39
2023-03-21T08:56:37.470Z,18.17
2023-03-21T08:59:39.661Z,18.19
2023-03-21T09:02:42.232Z,17.56
2023-03-21T09:05:45.636Z,17.76
2023-03-21T09:08:48.444Z,18.10
2023-03-21T09:11:52.458Z,17.82
2023-03-21T09:14:54.392Z,18.03
2023-03-21T09:17:59.253Z,17.57
2023-03-21T09:21:01.070Z,17.67
2023-03-21T09:24:05.796Z,18.00
2023-03-21T09:27:08.160Z,17.78
2023-03-21T09:30:11.110Z,17.51
2023-03-21T09:33:19.239Z,17.63
2023-03-21T09:36:25.129Z,17.89
2023-03-21T09:39:27.210Z,17.74
2023-03-21T09:42:32.825Z,18.32
2023-03-21T09:45:44.713Z,18.24
2023-03-21T09:48:57.122Z,18.28
2023-03-21T09:52:03.596Z,18.10
2023-03-21T09:55:18.804Z,18.20
2023-03-21T09:58:31.102Z,18.27
2023-03-21T10:01:34.297Z,18.42
2023-03-21T10:04:37.442Z,18.65
2023-03-21T10:07:42.457Z,18.37
2023-03-21T10:10:48.372Z,18.62
2023-03-21T10:13:56.150Z,18.95
2023-03-21T10:17:21.461Z,18.60
2023-03-21T10:20:26.900Z,18.94
2023-03-21T10:23:29.655Z,18.70
2023-03-21T10:26:31.534Z,18.33
2023-03-21T10:29:42.344Z,18.20
2023-03-21T10:32:44.517Z,18.29
2023-03-21T10:36:08.836Z,18.22
2023-03-21T10:39:33.866Z,17.96
2023-03-21T10:42:36.698Z,18.12
2023-03-21T10:45:38.791Z,17.99
2023-03-21T10:48:46.286Z,17.80
2023-03-21T10:51:54.156Z,17.77
2023-03-21T10:55:32.218Z,17.48
2023-03-21T10:58:39.391Z,17.83
2023-03-21T11:01:42.842Z,18.15
2023-03-21T11:04:46.252Z,17.93
2023-03-21T11:07:48.888Z,18.12
2023-03-21T11:11:01.284Z,18.10
2023-03-21T11:14:07.015Z,18.25
2023-03-21T11:17:21.078Z,18.42
2023-03-21T11:20:23.292Z,18.30
2023-03-21T11:23:33.600Z,18.26
2023-03-21T11:26:38.239Z,18.11
2023-03-21T11:29:46.302Z,18.17
2023-03-21T11:32:52.595Z,18.36
2023-03-21T11:36:01.678Z,18.35
2023-03-21T11:39:29.556Z,18.71
2023-03-21T11:42:33.433Z,18.56
2023-03-21T11:45:36.689Z,18.71
2023-03-21T11:48:42.334Z,18.88
2023-03-21T11:52:07.846Z,18.97
2023-03-21T11:55:47.396Z,19.03
2023-03-21T11:59:04.380Z,19.36
2023-03-21T12:02:41.785Z,19.48
2023-03-21T12:05:53.332Z,19.18
2023-03-21T12:09:21.985Z,18.61
2023-03-21T12:12:56.124Z,18.43
2023-03-21T12:16:05.732Z,18.50
2023-03-21T12:19:45.516Z,18.96
2023-03-21T12:23:05.726Z,19.06
2023-03-21T12:26:28.593Z,19.04
2023-03-21T12:30:00.963Z,19.00
2023-03-21T12:33:14.663Z,19.28
2023-03-21T12:36:38.649Z,19.08
2023-03-21T12:39:41.197Z,18.89
2023-03-21T12:43:17.718Z,18.73
2023-03-21T12:46:24.478Z,18.94
2023-03-21T12:49:36.244Z,18.89
2023-03-21T12:52:43.974Z,19.05
2023-03-21T12:55:45.977Z,19.39
2023-03-21T12:58:52.778Z,19.12
2023-03-21T13:01:58.420Z,18.85
2023-03-21T13:05:18.946Z,18.93
2023-03-21T13:08:29.576Z,19.01
2023-03-21T13:11:32.256Z,19.14
2023-03-21T13:14:37.320Z,18.94
2023-03-21T13:17:48.289Z,18.66
2023-03-21T13:20:53.458Z,18.58
2023-03-21T13:24:05.254Z,18.58
2023-03-21T13:27:33.232Z,18.73
2023-03-21T13:30:35.362Z,18.71
2023-03-21T13:33:38.061Z,18.86
2023-03-21T13:36:42.112Z,18.79
2023-03-21T13:39:46.573Z,18.97
2023-03-21T13:42:53.618Z,19.16
2023-03-21T13:45:55.969Z,19.11
2023-03-21T13:49:00.939Z,19.35
2023-03-21T13:52:27.271Z,19.22
2023-03-21T13:55:31.295Z,19.47
2023-03-21T13:59:02.481Z,19.24
2023-03-21T14:02:13.064Z,19.43
2023-03-21T14:05:22.371Z,19.37
2023-03-21T14:08:36.889Z,19.10
2023-03-21T14:11:44.470Z,18.55
2023-03-21T14:14:55.207Z,18.81
2023-03-21T14:18:06.384Z,18.43
2023-03-21T14:21:24.171Z,18.78
2023-03-21T14:24:26.361Z,18.80
2023-03-21T14:27:31.732Z,18.94
2023-03-21T14:30:36.621Z,18.84
2023-03-21T14:33:41.654Z,18.70
2023-03-21T14:36:51.685Z,18.47
2023-03-21T14:40:01.122Z,18.32
2023-03-21T14:43:06.738Z,18.04
2023-03-21T14:46:13.516Z,18.26
2023-03-21T14:49:30.976Z,18.27
2023-03-21T14:52:34.391Z,18.20
2023-03-21T14:55:43.262Z,18.20
2023-03-21T14:58:46.500Z,18.25
2023-03-21T15:01:50.075Z,18.02
2023-03-21T15:04:54.458Z,17.85
2023-03-21T15:08:08.524Z,17.86
2023-03-21T15:11:12.911Z,17.72
2023-03-21T15:14:15.363Z,17.65
2023-03-21T15:17:17.482Z,17.65
2023-03-21T15:20:22.457Z,17.58
2023-03-21T15:23:30.447Z,17.51
2023-03-21T15:26:32.341Z,17.33
2023-03-21T15:29:36.910Z,17.16
2023-03-21T15:32:38.979Z,16.98
2023-03-21T15:35:46.077Z,16.80
2023-03-21T15:38:49.022Z,16.84
2023-03-21T15:42:07.272Z,16.80
2023-03-21T15:45:30.059Z,16.75
2023-03-21T15:48:34.297Z,16.66
2023-03-21T15:51:36.455Z,16.57
2023-03-21T15:54:55.891Z,16.45
2023-03-21T15:58:05.129Z,16.41
2023-03-21T16:01:13.194Z,16.36
2023-03-21T16:04:18.321Z,16.30
2023-03-21T16:07:20.100Z,16.22
2023-03-21T16:10:28.075Z,16.17
2023-03-21T16:13:29.857Z,16.02
2023-03-21T16:16:32.154Z,15.98
2023-03-21T16:19:34.362Z,15.89
2023-03-21T16:22:36.177Z,15.79
2023-03-21T16:25:37.939Z,15.70
2023-03-21T16:28:39.861Z,15.63
2023-03-21T16:31:42.515Z,15.51
2023-03-21T16:34:44.767Z,15.42
2023-03-21T16:37:48.211Z,15.28
2023-03-21T16:40:51.681Z,15.19
2023-03-21T16:43:54.624Z,15.06
2023-03-21T16:46:56.404Z,14.94
2023-03-21T16:49:58.217Z,14.88
2023-03-21T16:53:00.592Z,14.79
2023-03-21T16:56:04.298Z,14.70
2023-03-21T16:59:06.505Z,14.57
2023-03-21T17:02:17.030Z,14.50
2023-03-21T17:05:19.216Z,14.41
2023-03-21T17:08:21.916Z,14.35
2023-03-21T17:11:26.253Z,14.34
2023-03-21T17:14:28.355Z,14.31
2023-03-21T17:17:30.149Z,14.24
2023-03-21T17:20:33.704Z,14.22
2023-03-21T17:23:36.124Z,14.03
2023-03-21T17:26:37.999Z,14.02
2023-03-21T17:29:39.975Z,13.97
2023-03-21T17:32:41.902Z,13.94
2023-03-21T17:35:43.735Z,13.91
2023-03-21T17:38:46.529Z,13.86
2023-03-21T17:41:49.809Z,13.83
2023-03-21T17:44:51.592Z,13.80
2023-03-21T17:47:55.003Z,13.79
2023-03-21T17:50:57.272Z,13.72
2023-03-21T17:53:59.709Z,13.63
2023-03-21T17:57:01.692Z,13.60
2023-03-21T18:00:12.522Z,13.61
2023-03-21T18:03:14.716Z,13.53
2023-03-21T18:06:19.783Z,13.37
2023-03-21T18:09:21.843Z,13.38
2023-03-21T18:12:23.776Z,13.33
2023-03-21T18:15:30.130Z,13.30
2023-03-21T18:18:32.833Z,13.30
2023-03-21T18:21:36.068Z,13.24
2023-03-21T18:24:38.348Z,13.16
2023-03-21T18:27:59.405Z,13.10
2023-03-21T18:31:11.522Z,13.05
2023-03-21T18:34:16.538Z,12.95
2023-03-21T18:37:20.842Z,12.89
2023-03-21T18:40:24.232Z,12.84
2023-03-21T18:44:02.319Z,12.72
2023-03-21T18:46:50.285Z,12.68
2023-03-21T18:53:14.853Z,12.68
2023-03-21T18:59:39.630Z,12.57
2023-03-21T19:02:46.907Z,12.52
2023-03-21T19:05:49.460Z,12.55
2023-03-21T19:08:53.483Z,12.52
2023-03-21T19:11:55.693Z,12.14
2023-03-21T19:15:01.034Z,11.65
2023-03-21T19:21:25.702Z,11.35
2023-03-21T19:24:29.148Z,11.44
2023-03-21T19:27:33.729Z,11.46
2023-03-21T19:30:36.814Z,11.43
2023-03-21T19:33:38.814Z,11.59
2023-03-21T19:36:45.692Z,11.57
2023-03-21T19:39:51.761Z,11.60
2023-03-21T19:42:54.085Z,11.57
2023-03-21T19:45:57.894Z,11.60
2023-03-21T19:49:04.333Z,11.45
2023-03-21T19:52:07.910Z,11.42
2023-03-21T19:55:10.929Z,11.18
2023-03-21T19:58:16.171Z,11.07
2023-03-21T20:01:18.477Z,10.62
2023-03-21T20:04:20.802Z,10.14
2023-03-21T20:07:22.914Z,10.07
2023-03-21T20:10:28.537Z,10.05
2023-03-21T20:13:31.030Z,10.04
2023-03-21T20:16:35.811Z,10.10
2023-03-21T20:19:38.759Z,10.08
2023-03-21T20:26:11.787Z,10.01
2023-03-21T20:30:07.643Z,10.02
2023-03-21T20:32:39.981Z,10.07
2023-03-21T20:39:04.049Z,10.00
2023-03-21T20:42:06.218Z,9.99
2023-03-21T20:45:09.722Z,9.91
2023-03-21T20:48:11.860Z,9.63
2023-03-21T20:54:36.280Z,8.92
2023-03-21T20:57:39.105Z,8.44
2023-03-21T21:00:42.939Z,8.34
2023-03-21T21:03:45.300Z,8.07
2023-03-21T21:06:48.236Z,8.11
2023-03-21T21:09:50.249Z,8.39
2023-03-21T21:12:52.337Z,8.14
2023-03-21T21:15:54.375Z,8.04
2023-03-21T21:18:57.527Z,7.86
2023-03-21T21:21:59.390Z,7.85
2023-03-21T21:25:01.179Z,7.80
2023-03-21T21:28:03.768Z,7.91
2023-03-21T21:34:19.840Z,8.04
2023-03-21T21:37:22.686Z,8.27
2023-03-21T21:40:25.656Z,8.38
2023-03-21T21:43:27.642Z,8.34
2023-03-21T21:46:29.503Z,8.43
2023-03-21T21:49:31.347Z,8.33
2023-03-21T21:52:33.294Z,8.30
2023-03-21T21:55:35.440Z,8.23
2023-03-21T21:58:38.935Z,8.24
2023-03-21T22:01:42.432Z,8.18
2023-03-21T22:04:44.353Z,8.25
2023-03-21T22:07:46.645Z,8.19
2023-03-21T22:10:48.978Z,8.28
2023-03-21T22:13:51.670Z,8.30
2023-03-21T22:16:53.678Z,8.27
2023-03-21T22:20:05.267Z,8.11
2023-03-21T22:23:08.089Z,8.08
2023-03-21T22:26:10.610Z,7.85
2023-03-21T22:29:13.190Z,7.71
2023-03-21T22:32:14.961Z,7.86
2023-03-21T22:35:17.160Z,7.97
2023-03-21T22:38:28.095Z,7.96
2023-03-21T22:41:29.959Z,7.93
2023-03-21T22:44:35.214Z,7.93
2023-03-21T22:47:37.619Z,7.88
2023-03-21T22:50:39.631Z,7.80
2023-03-21T22:53:41.639Z,7.81
2023-03-21T22:56:43.713Z,7.85
2023-03-21T22:59:45.704Z,7.82
2023-03-21T23:02:47.644Z,7.66
2023-03-21T23:05:49.435Z,7.80
2023-03-21T23:08:52.200Z,7.80
2023-03-21T23:11:54.841Z,7.72
2023-03-21T23:14:56.703Z,7.47
2023-03-21T23:18:02.535Z,7.64
2023-03-21T23:21:06.450Z,7.60
2023-03-21T23:24:08.707Z,7.28
2023-03-21T23:27:10.632Z,6.65
2023-03-21T23:30:12.526Z,6.32
2023-03-21T23:33:31.807Z,6.53
2023-03-21T23:36:33.666Z,6.79
2023-03-21T23:39:35.648Z,6.93
2023-03-21T23:42:37.402Z,7.03
2023-03-21T23:45:39.184Z,7.07
2023-03-21T23:48:42.155Z,7.02
2023-03-21T23:51:44.744Z,6.99
2023-03-21T23:54:46.662Z,7.07
2023-03-21T23:57:49.806Z,7.09
